createdAt,value
2018-09-20T00:00:52.046Z,11.68
2018-09-20T00:03:20.884Z,8.32
2018-09-20T00:05:49.717Z,7.22
2018-09-20T00:08:18.548Z,10.70
2018-09-20T00:10:48.147Z,5.97
2018-09-20T00:13:16.973Z,7.82
2018-09-20T00:15:45.806Z,8.60
2018-09-20T00:18:14.638Z,7.97
2018-09-20T00:20:43.479Z,7.05
2018-09-20T00:23:12.313Z,9.15
2018-09-20T00:25:41.159Z,7.65
2018-09-20T00:28:09.995Z,6.53
2018-09-20T00:30:38.829Z,7.45
2018-09-20T00:33:07.668Z,6.87
2018-09-20T00:35:36.510Z,8.20
2018-09-20T00:38:05.346Z,8.02
2018-09-20T00:40:34.926Z,7.65
2018-09-20T00:43:03.758Z,7.07
2018-09-20T00:45:32.593Z,6.85
2018-09-20T00:48:01.425Z,6.80
2018-09-20T00:50:30.263Z,7.25
2018-09-20T00:52:59.104Z,7.68
2018-09-20T00:55:27.940Z,7.43
2018-09-20T00:57:56.765Z,8.55
2018-09-20T01:00:25.633Z,6.55
2018-09-20T01:02:54.459Z,7.65
2018-09-20T01:05:23.295Z,8.68
2018-09-20T01:07:52.130Z,8.02
2018-09-20T01:10:21.710Z,7.25
2018-09-20T01:12:50.558Z,8.45
2018-09-20T01:15:19.406Z,8.35
2018-09-20T01:17:48.221Z,6.40
2018-09-20T01:20:17.063Z,6.93
2018-09-20T01:22:45.898Z,6.72
2018-09-20T01:25:14.741Z,6.97
2018-09-20T01:27:43.586Z,6.82
2018-09-20T01:30:12.427Z,7.55
2018-09-20T01:32:41.276Z,6.68
2018-09-20T01:35:10.123Z,7.12
2018-09-20T01:37:38.942Z,8.40
2018-09-20T01:40:07.835Z,7.85
2018-09-20T01:42:36.615Z,7.12
2018-09-20T01:45:05.453Z,9.68
2018-09-20T01:47:34.295Z,7.18
2018-09-20T01:50:03.135Z,7.47
2018-09-20T01:52:31.963Z,7.97
2018-09-20T01:55:00.794Z,7.47
2018-09-20T01:57:29.631Z,10.73
2018-09-20T01:59:58.464Z,6.95
2018-09-20T02:02:27.293Z,9.73
2018-09-20T02:04:56.142Z,8.63
2018-09-20T02:07:24.974Z,8.27
2018-09-20T02:09:53.806Z,7.22
2018-09-20T02:12:22.632Z,7.62
2018-09-20T02:14:51.477Z,7.22
2018-09-20T02:17:20.307Z,7.93
2018-09-20T02:19:49.164Z,10.98
2018-09-20T02:22:18.012Z,9.52
2018-09-20T02:24:47.576Z,9.85
2018-09-20T02:27:16.497Z,10.68
2018-09-20T02:29:45.321Z,7.70
2018-09-20T02:32:14.157Z,7.55
2018-09-20T02:34:42.980Z,7.03
2018-09-20T02:37:11.820Z,8.13
2018-09-20T02:39:40.647Z,6.90
2018-09-20T02:42:10.217Z,10.38
2018-09-20T02:44:39.061Z,12.77
2018-09-20T02:47:07.893Z,12.50
2018-09-20T02:49:36.729Z,10.38
2018-09-20T02:52:06.337Z,9.05
2018-09-20T02:54:35.138Z,8.38
2018-09-20T02:57:03.982Z,7.65
2018-09-20T02:59:32.834Z,8.18
2018-09-20T03:02:01.665Z,8.52
2018-09-20T03:04:30.494Z,8.15
2018-09-20T03:06:59.336Z,10.48
2018-09-20T03:09:28.175Z,7.55
2018-09-20T03:11:57.012Z,15.50
2018-09-20T03:14:25.853Z,21.65
2018-09-20T03:16:54.696Z,12.95
2018-09-20T03:19:23.534Z,8.90
2018-09-20T03:21:52.366Z,7.90
2018-09-20T03:24:21.218Z,7.60
2018-09-20T03:26:59.136Z,8.55
2018-09-20T03:29:24.865Z,7.45
2018-09-20T03:31:54.548Z,8.68
2018-09-20T03:34:23.377Z,10.60
2018-09-20T03:36:52.215Z,8.30
2018-09-20T03:39:21.056Z,8.05
2018-09-20T03:41:49.902Z,7.60
2018-09-20T03:44:18.728Z,9.15
2018-09-20T03:46:47.568Z,9.85
2018-09-20T03:49:16.407Z,7.78
2018-09-20T03:51:45.982Z,8.13
2018-09-20T03:54:14.818Z,8.48
2018-09-20T03:56:44.397Z,7.55
2018-09-20T03:59:13.239Z,9.05
2018-09-20T04:01:42.069Z,9.75
2018-09-20T04:04:11.653Z,9.07
2018-09-20T04:06:40.490Z,8.48
2018-09-20T04:09:09.325Z,9.07
2018-09-20T04:11:38.157Z,10.73
2018-09-20T04:14:06.990Z,7.95
2018-09-20T04:16:35.820Z,9.15
2018-09-20T04:19:04.651Z,8.45
2018-09-20T04:21:33.488Z,10.80
2018-09-20T04:24:02.321Z,8.90
2018-09-20T04:26:31.165Z,9.30
2018-09-20T04:28:59.994Z,9.32
2018-09-20T04:31:28.914Z,9.32
2018-09-20T04:33:57.717Z,9.35
2018-09-20T04:36:26.544Z,9.50
2018-09-20T04:38:55.392Z,9.50
2018-09-20T04:41:24.222Z,9.43
2018-09-20T04:43:53.069Z,9.02
2018-09-20T04:46:21.902Z,11.23
2018-09-20T04:48:50.742Z,9.32
2018-09-20T04:51:19.566Z,9.05
2018-09-20T04:53:48.401Z,9.10
2018-09-20T04:56:17.976Z,11.95
2018-09-20T04:58:47.044Z,10.00
2018-09-20T05:01:15.876Z,8.73
2018-09-20T05:03:44.720Z,10.20
2018-09-20T05:06:13.559Z,13.00
2018-09-20T05:08:43.155Z,10.15
2018-09-20T05:11:12.657Z,9.80
2018-09-20T05:13:41.448Z,10.40
2018-09-20T05:16:10.289Z,8.90
2018-09-20T05:18:39.125Z,8.02
2018-09-20T05:21:07.957Z,11.20
2018-09-20T05:23:36.801Z,9.45
2018-09-20T05:26:05.642Z,8.77
2018-09-20T05:28:34.469Z,10.05
2018-09-20T05:31:03.301Z,9.50
2018-09-20T05:33:32.134Z,9.63
2018-09-20T05:36:00.963Z,9.35
2018-09-20T05:38:29.800Z,10.02
2018-09-20T05:40:58.636Z,10.33
2018-09-20T05:43:28.260Z,9.00
2018-09-20T05:45:57.043Z,12.00
2018-09-20T05:48:25.875Z,9.05
2018-09-20T05:50:54.736Z,15.57
2018-09-20T05:53:24.304Z,12.85
2018-09-20T05:55:53.156Z,13.57
2018-09-20T05:58:21.998Z,12.20
2018-09-20T06:00:50.827Z,10.18
2018-09-20T06:03:19.669Z,10.48
2018-09-20T06:05:49.283Z,10.63
2018-09-20T06:08:18.092Z,11.40
2018-09-20T06:10:46.942Z,12.27
2018-09-20T06:13:15.871Z,13.13
2018-09-20T06:15:44.683Z,11.40
2018-09-20T06:18:13.517Z,10.98
2018-09-20T06:20:43.124Z,10.30
2018-09-20T06:23:11.952Z,13.57
2018-09-20T06:25:40.802Z,12.55
2018-09-20T06:28:10.386Z,11.25
2018-09-20T06:30:39.220Z,10.03
2018-09-20T06:33:08.064Z,14.17
2018-09-20T06:35:36.909Z,11.32
2018-09-20T06:38:05.749Z,13.60
2018-09-20T06:40:34.593Z,14.70
2018-09-20T06:43:03.448Z,16.98
2018-09-20T06:45:33.044Z,15.43
2018-09-20T06:48:01.900Z,15.10
2018-09-20T06:50:30.764Z,17.10
2018-09-20T06:52:59.581Z,12.48
2018-09-20T06:55:28.423Z,14.68
2018-09-20T06:57:58.009Z,14.38
2018-09-20T07:00:26.864Z,13.55
2018-09-20T07:02:55.708Z,15.02
2018-09-20T07:05:25.290Z,13.07
2018-09-20T07:07:54.143Z,14.65
2018-09-20T07:10:22.976Z,15.70
2018-09-20T07:12:51.819Z,15.15
2018-09-20T07:15:20.649Z,13.60
2018-09-20T07:17:49.497Z,12.18
2018-09-20T07:20:18.345Z,13.55
2018-09-20T07:22:47.917Z,11.80
2018-09-20T07:25:16.812Z,12.45
2018-09-20T07:27:45.613Z,14.27
2018-09-20T07:30:14.457Z,12.35
2018-09-20T07:32:43.358Z,15.57
2018-09-20T07:35:12.890Z,12.30
2018-09-20T07:37:41.723Z,14.50
2018-09-20T07:40:10.588Z,12.60
2018-09-20T07:42:39.427Z,14.87
2018-09-20T07:45:08.264Z,17.45
2018-09-20T07:47:37.122Z,14.35
2018-09-20T07:50:05.988Z,15.18
2018-09-20T07:52:34.846Z,17.37
2018-09-20T07:55:04.428Z,14.82
2018-09-20T07:57:33.280Z,14.85
2018-09-20T08:00:02.118Z,13.62
2018-09-20T08:02:30.970Z,11.05
2018-09-20T08:04:59.804Z,12.73
2018-09-20T08:07:29.381Z,12.75
2018-09-20T08:09:58.221Z,11.05
2018-09-20T08:12:27.067Z,12.48
2018-09-20T08:14:55.919Z,15.57
2018-09-20T08:17:24.749Z,12.07
2018-09-20T08:19:54.345Z,12.68
2018-09-20T08:22:23.187Z,11.07
2018-09-20T08:24:52.025Z,10.57
2018-09-20T08:27:20.903Z,11.25
2018-09-20T08:29:49.739Z,11.10
2018-09-20T08:32:18.582Z,12.52
2018-09-20T08:34:47.417Z,12.82
2018-09-20T08:37:16.327Z,13.15
2018-09-20T08:39:45.096Z,8.93
2018-09-20T08:42:13.932Z,14.35
2018-09-20T08:44:42.778Z,10.23
2018-09-20T08:47:11.616Z,9.43
2018-09-20T08:49:40.459Z,8.05
2018-09-20T08:52:09.365Z,11.88
2018-09-20T08:54:38.918Z,12.15
2018-09-20T08:57:08.371Z,13.75
2018-09-20T08:59:37.168Z,12.18
2018-09-20T09:02:06.007Z,12.88
2018-09-20T09:04:34.909Z,15.05
2018-09-20T09:07:03.676Z,10.25
2018-09-20T09:09:33.198Z,13.15
2018-09-20T09:12:03.141Z,17.15
2018-09-20T09:14:33.850Z,8.32
2018-09-20T09:17:02.880Z,11.50
2018-09-20T09:19:32.513Z,12.07
2018-09-20T09:24:41.728Z,21.90
2018-09-20T09:27:10.580Z,13.30
2018-09-20T09:29:39.426Z,14.05
2018-09-20T09:32:08.250Z,9.20
2018-09-20T09:34:37.090Z,11.98
2018-09-20T09:37:05.916Z,9.63
2018-09-20T09:39:34.773Z,12.23
2018-09-20T09:42:03.649Z,9.90
2018-09-20T09:44:33.204Z,8.80
2018-09-20T09:47:02.049Z,7.87
2018-09-20T09:49:30.884Z,9.25
2018-09-20T09:51:59.732Z,10.85
2018-09-20T09:54:28.634Z,11.73
2018-09-20T09:56:58.152Z,9.75
2018-09-20T09:59:26.999Z,11.18
2018-09-20T10:01:55.826Z,12.25
2018-09-20T10:04:24.664Z,12.40
2018-09-20T10:06:54.280Z,9.80
2018-09-20T10:09:23.091Z,7.82
2018-09-20T10:11:51.951Z,7.90
2018-09-20T10:14:20.810Z,8.07
2018-09-20T10:16:49.656Z,11.07
2018-09-20T10:19:18.498Z,8.35
2018-09-20T10:21:47.340Z,5.28
2018-09-20T10:24:16.177Z,5.35
2018-09-20T10:26:45.002Z,6.90
2018-09-20T10:29:13.842Z,6.15
2018-09-20T10:31:42.679Z,8.75
2018-09-20T10:34:11.571Z,5.57
2018-09-20T10:36:40.372Z,8.10
2018-09-20T10:39:09.204Z,8.60
2018-09-20T10:41:38.052Z,7.62
2018-09-20T10:44:06.892Z,9.40
2018-09-20T10:46:36.479Z,8.57
2018-09-20T10:49:05.360Z,7.27
2018-09-20T10:51:34.206Z,7.43
2018-09-20T10:54:03.046Z,7.65
2018-09-20T10:56:31.869Z,5.85
2018-09-20T10:59:01.444Z,7.18
2018-09-20T11:01:30.278Z,6.35
2018-09-20T11:03:59.136Z,5.10
2018-09-20T11:06:27.981Z,6.62
2018-09-20T11:08:56.825Z,7.12
2018-09-20T11:11:26.389Z,8.30
2018-09-20T11:13:55.215Z,8.37
2018-09-20T11:16:24.135Z,6.20
2018-09-20T11:18:52.938Z,8.35
2018-09-20T11:21:21.780Z,4.50
2018-09-20T11:23:50.623Z,6.32
2018-09-20T11:26:19.461Z,8.00
2018-09-20T11:28:49.027Z,4.72
2018-09-20T11:31:17.871Z,4.83
2018-09-20T11:33:46.723Z,7.03
2018-09-20T11:36:15.579Z,6.28
2018-09-20T11:38:44.405Z,8.23
2018-09-20T11:41:13.241Z,5.05
2018-09-20T11:43:42.080Z,8.30
2018-09-20T11:46:10.927Z,5.47
2018-09-20T11:48:39.762Z,8.88
2018-09-20T11:51:08.608Z,7.03
2018-09-20T11:53:37.441Z,9.10
2018-09-20T11:56:06.284Z,4.87
2018-09-20T11:58:35.135Z,6.20
2018-09-20T12:01:03.992Z,8.25
2018-09-20T12:03:32.827Z,7.00
2018-09-20T12:06:01.682Z,9.07
2018-09-20T12:08:30.508Z,9.32
2018-09-20T12:10:59.343Z,5.45
2018-09-20T12:13:28.178Z,10.13
2018-09-20T12:15:57.821Z,7.10
2018-09-20T12:18:26.663Z,8.32
2018-09-20T12:20:56.239Z,6.30
2018-09-20T12:23:25.080Z,8.20
2018-09-20T12:25:54.041Z,7.43
2018-09-20T12:28:22.766Z,5.65
2018-09-20T12:30:51.611Z,6.80
2018-09-20T12:33:20.469Z,7.97
2018-09-20T12:35:49.510Z,7.03
2018-09-20T12:38:18.244Z,5.55
2018-09-20T12:40:46.971Z,8.55
2018-09-20T12:43:16.604Z,5.82
2018-09-20T12:45:45.375Z,7.93
2018-09-20T12:48:15.020Z,6.57
2018-09-20T12:50:43.802Z,6.83
2018-09-20T12:53:12.660Z,6.80
2018-09-20T12:55:42.243Z,8.70
2018-09-20T12:58:11.114Z,7.00
2018-09-20T13:00:39.963Z,6.80
2018-09-20T13:03:09.551Z,8.13
2018-09-20T13:05:38.391Z,8.95
2018-09-20T13:08:07.236Z,7.03
2018-09-20T13:10:36.063Z,6.35
2018-09-20T13:13:04.967Z,7.07
2018-09-20T13:15:33.756Z,5.50
2018-09-20T13:18:02.591Z,5.90
2018-09-20T13:20:32.228Z,5.93
2018-09-20T13:23:01.007Z,9.70
2018-09-20T13:25:29.874Z,6.50
2018-09-20T13:27:58.678Z,6.60
2018-09-20T13:30:27.527Z,7.10
2018-09-20T13:32:56.357Z,9.23
2018-09-20T13:35:25.200Z,6.25
2018-09-20T13:37:54.023Z,7.93
2018-09-20T13:40:22.863Z,5.97
2018-09-20T13:42:51.727Z,5.05
2018-09-20T13:45:20.552Z,6.68
2018-09-20T13:47:49.383Z,4.53
2018-09-20T13:50:18.962Z,6.60
2018-09-20T13:52:47.821Z,5.87
2018-09-20T13:55:16.655Z,6.05
2018-09-20T13:57:46.243Z,5.22
2018-09-20T14:00:26.843Z,7.25
2018-09-20T14:02:59.086Z,6.87
2018-09-20T14:05:27.953Z,6.18
2018-09-20T14:07:56.798Z,6.18
2018-09-20T14:10:25.628Z,5.78
2018-09-20T14:12:54.459Z,5.82
2018-09-20T14:15:23.312Z,5.28
2018-09-20T14:17:52.133Z,5.43
2018-09-20T14:20:21.707Z,5.72
2018-09-20T14:22:50.535Z,6.95
2018-09-20T14:25:19.381Z,7.62
2018-09-20T14:27:48.211Z,6.60
2018-09-20T14:30:17.786Z,7.82
2018-09-20T14:32:46.626Z,5.82
2018-09-20T14:35:15.475Z,6.95
2018-09-20T14:37:44.294Z,5.80
2018-09-20T14:40:13.129Z,5.72
2018-09-20T14:42:41.960Z,9.05
2018-09-20T14:45:11.578Z,5.28
2018-09-20T14:47:41.127Z,5.85
2018-09-20T14:50:09.964Z,5.57
2018-09-20T14:52:38.870Z,5.27
2018-09-20T14:55:07.650Z,6.80
2018-09-20T14:57:36.487Z,6.57
2018-09-20T15:00:05.323Z,4.53
2018-09-20T15:02:34.895Z,4.00
2018-09-20T15:05:03.750Z,4.87
2018-09-20T15:07:32.619Z,4.93
2018-09-20T15:10:01.460Z,7.05
2018-09-20T15:12:30.295Z,5.30
2018-09-20T15:14:59.152Z,5.25
2018-09-20T15:17:27.973Z,6.35
2018-09-20T15:19:56.834Z,7.45
2018-09-20T15:22:26.440Z,7.40
2018-09-20T15:24:55.252Z,6.90
2018-09-20T15:27:24.095Z,5.65
2018-09-20T15:29:52.929Z,5.32
2018-09-20T15:32:22.505Z,5.90
2018-09-20T15:34:51.338Z,6.25
2018-09-20T15:37:20.181Z,6.83
2018-09-20T15:39:49.029Z,6.32
2018-09-20T15:42:17.859Z,8.88
2018-09-20T15:44:46.714Z,5.10
2018-09-20T15:47:15.585Z,6.15
2018-09-20T15:49:44.390Z,5.75
2018-09-20T15:52:13.228Z,6.32
2018-09-20T15:54:42.055Z,7.50
2018-09-20T15:57:10.886Z,4.75
2018-09-20T15:59:39.731Z,6.97
2018-09-20T16:02:08.590Z,4.45
2018-09-20T16:04:38.167Z,6.70
2018-09-20T16:07:06.996Z,4.82
2018-09-20T16:09:36.572Z,6.32
2018-09-20T16:12:06.144Z,5.50
2018-09-20T16:14:35.076Z,5.87
2018-09-20T16:17:03.848Z,5.12
2018-09-20T16:19:32.688Z,3.97
2018-09-20T16:22:01.532Z,4.57
2018-09-20T16:24:30.970Z,6.72
2018-09-20T16:27:00.555Z,7.32
2018-09-20T16:29:30.973Z,6.75
2018-09-20T16:32:01.161Z,9.55
2018-09-20T16:34:30.348Z,8.40
2018-09-20T16:39:37.800Z,5.18
2018-09-20T16:42:07.911Z,8.47
2018-09-20T16:44:37.488Z,6.05
2018-09-20T16:47:06.322Z,8.07
2018-09-20T16:49:35.173Z,7.18
2018-09-20T16:52:04.005Z,5.62
2018-09-20T16:54:32.867Z,5.78
2018-09-20T16:57:01.723Z,7.75
2018-09-20T16:59:30.552Z,5.25
2018-09-20T17:01:59.401Z,5.40
2018-09-20T17:04:28.233Z,6.10
2018-09-20T17:06:57.811Z,6.75
2018-09-20T17:09:26.662Z,5.45
2018-09-20T17:11:55.490Z,4.18
2018-09-20T17:14:24.400Z,5.68
2018-09-20T17:16:53.199Z,5.93
2018-09-20T17:19:22.042Z,6.95
2018-09-20T17:21:50.885Z,5.60
2018-09-20T17:24:19.734Z,7.80
2018-09-20T17:26:48.565Z,7.60
2018-09-20T17:29:17.419Z,6.62
2018-09-20T17:31:46.248Z,4.50
2018-09-20T17:34:15.160Z,5.60
2018-09-20T17:36:43.976Z,8.23
2018-09-20T17:39:12.791Z,6.55
2018-09-20T17:41:41.899Z,8.95
2018-09-20T17:44:10.746Z,7.07
2018-09-20T17:46:39.590Z,5.93
2018-09-20T17:49:09.159Z,7.22
2018-09-20T17:51:37.990Z,7.10
2018-09-20T17:54:07.771Z,7.85
2018-09-20T17:56:36.518Z,10.75
2018-09-20T17:59:05.361Z,8.40
2018-09-20T18:01:34.204Z,7.60
2018-09-20T18:04:03.035Z,8.32
2018-09-20T18:06:31.888Z,9.40
2018-09-20T18:09:00.734Z,11.05
2018-09-20T18:11:30.322Z,13.45
2018-09-20T18:13:59.195Z,14.65
2018-09-20T18:16:28.032Z,10.65
2018-09-20T18:18:56.870Z,11.12
2018-09-20T18:21:25.725Z,9.38
2018-09-20T18:23:54.549Z,8.88
2018-09-20T18:26:23.390Z,8.20
2018-09-20T18:28:52.248Z,10.25
2018-09-20T18:31:21.096Z,8.38
2018-09-20T18:33:49.936Z,8.88
2018-09-20T18:36:19.556Z,8.93
2018-09-20T18:38:49.127Z,8.23
2018-09-20T18:41:17.966Z,9.45
2018-09-20T18:43:46.817Z,7.43
2018-09-20T18:46:15.665Z,10.98
2018-09-20T18:48:44.534Z,9.63
2018-09-20T18:51:13.371Z,9.10
2018-09-20T18:53:42.216Z,10.48
2018-09-20T18:56:11.058Z,7.85
2018-09-20T18:58:39.903Z,8.27
2018-09-20T19:01:08.785Z,7.72
2018-09-20T19:03:37.613Z,8.75
2018-09-20T19:06:06.456Z,8.35
2018-09-20T19:08:35.319Z,8.75
2018-09-20T19:11:04.890Z,6.85
2018-09-20T19:13:33.716Z,8.90
2018-09-20T19:16:03.315Z,7.45
2018-09-20T19:18:32.898Z,8.07
2018-09-20T19:21:01.741Z,8.63
2018-09-20T19:23:31.331Z,8.85
2018-09-20T19:26:00.196Z,8.52
2018-09-20T19:28:29.035Z,8.10
2018-09-20T19:30:57.873Z,7.12
2018-09-20T19:33:27.298Z,7.18
2018-09-20T19:35:56.159Z,8.70
2018-09-20T19:38:24.995Z,5.87
2018-09-20T19:40:53.905Z,6.40
2018-09-20T19:43:22.705Z,8.50
2018-09-20T19:45:51.537Z,6.43
2018-09-20T19:48:20.368Z,6.03
2018-09-20T19:50:49.221Z,7.85
2018-09-20T19:53:18.814Z,8.43
2018-09-20T19:55:47.663Z,11.43
2018-09-20T19:58:16.519Z,7.75
2018-09-20T20:00:45.366Z,7.28
2018-09-20T20:03:14.197Z,9.93
2018-09-20T20:05:43.083Z,11.02
2018-09-20T20:08:12.678Z,8.15
2018-09-20T20:10:42.253Z,8.15
2018-09-20T20:13:11.095Z,8.38
2018-09-20T20:15:40.673Z,6.72
2018-09-20T20:18:10.257Z,7.37
2018-09-20T20:20:39.102Z,8.73
2018-09-20T20:23:07.940Z,8.32
2018-09-20T20:25:36.793Z,6.65
2018-09-20T20:28:05.654Z,8.93
2018-09-20T20:30:34.503Z,10.13
2018-09-20T20:33:03.327Z,7.43
2018-09-20T20:35:32.911Z,8.75
2018-09-20T20:38:01.772Z,8.50
2018-09-20T20:40:30.611Z,8.82
2018-09-20T20:43:00.199Z,10.25
2018-09-20T20:45:29.058Z,11.40
2018-09-20T20:47:57.896Z,10.52
2018-09-20T20:50:27.473Z,10.90
2018-09-20T20:52:56.329Z,7.60
2018-09-20T20:55:25.169Z,10.23
2018-09-20T20:57:54.790Z,7.87
2018-09-20T21:00:23.635Z,10.73
2018-09-20T21:02:52.464Z,9.77
2018-09-20T21:05:22.111Z,9.50
2018-09-20T21:07:50.952Z,7.18
2018-09-20T21:10:19.801Z,8.98
2018-09-20T21:12:48.645Z,10.48
2018-09-20T21:15:17.484Z,9.95
2018-09-20T21:17:46.314Z,9.95
2018-09-20T21:20:15.918Z,6.93
2018-09-20T21:22:44.745Z,8.90
2018-09-20T21:25:13.585Z,10.43
2018-09-20T21:27:42.452Z,10.75
2018-09-20T21:30:11.276Z,10.73
2018-09-20T21:32:40.965Z,10.50
2018-09-20T21:35:09.687Z,8.52
2018-09-20T21:37:39.261Z,9.77
2018-09-20T21:40:08.099Z,11.07
2018-09-20T21:42:36.947Z,9.93
2018-09-20T21:45:06.527Z,9.98
2018-09-20T21:47:35.364Z,7.65
2018-09-20T21:50:04.952Z,7.60
2018-09-20T21:52:33.782Z,8.85
2018-09-20T21:55:02.612Z,8.80
2018-09-20T21:57:31.443Z,9.27
2018-09-20T22:00:00.291Z,8.68
2018-09-20T22:02:29.125Z,9.43
2018-09-20T22:04:57.978Z,7.50
2018-09-20T22:07:26.822Z,7.95
2018-09-20T22:09:55.678Z,10.63
2018-09-20T22:12:24.513Z,6.87
2018-09-20T22:14:53.335Z,7.35
2018-09-20T22:17:22.758Z,7.85
2018-09-20T22:19:52.332Z,8.93
2018-09-20T22:22:21.168Z,8.80
2018-09-20T22:24:50.001Z,5.75
2018-09-20T22:27:18.838Z,7.40
2018-09-20T22:29:47.678Z,7.05
2018-09-20T22:32:16.514Z,6.47
2018-09-20T22:34:46.107Z,9.23
2018-09-20T22:37:15.686Z,7.05
2018-09-20T22:39:44.551Z,7.95
2018-09-20T22:42:13.361Z,7.60
2018-09-20T22:44:42.222Z,6.93
2018-09-20T22:47:11.054Z,9.77
2018-09-20T22:49:39.895Z,9.35
2018-09-20T22:52:08.727Z,9.93
2018-09-20T22:54:37.573Z,9.32
2018-09-20T22:57:06.414Z,10.00
2018-09-20T22:59:35.249Z,8.77
2018-09-20T23:02:04.102Z,10.30
2018-09-20T23:04:32.974Z,10.73
2018-09-20T23:07:01.800Z,9.07
2018-09-20T23:09:30.639Z,9.07
2018-09-20T23:11:59.471Z,9.20
2018-09-20T23:14:29.061Z,8.77
2018-09-20T23:16:57.887Z,6.40
2018-09-20T23:19:26.714Z,9.93
2018-09-20T23:21:55.542Z,8.18
2018-09-20T23:24:25.121Z,8.35
2018-09-20T23:26:53.948Z,7.32
2018-09-20T23:29:22.783Z,11.18
2018-09-20T23:31:51.620Z,8.00
2018-09-20T23:34:20.461Z,7.82
2018-09-20T23:36:49.291Z,7.30
2018-09-20T23:39:18.130Z,9.57
2018-09-20T23:41:46.969Z,10.95
2018-09-20T23:44:16.581Z,9.07
2018-09-20T23:46:45.379Z,8.98
2018-09-20T23:49:14.211Z,11.48
2018-09-20T23:51:43.041Z,9.82
2018-09-20T23:54:11.870Z,6.15
2018-09-20T23:56:40.697Z,9.13
2018-09-20T23:59:09.545Z,8.50
